Current Conditions
Overcast
Conditions




Pressure
29.84 (inHG) - 1010.52 (mb)
Visibility

10.0 (mimiles) - 16.1 (km)
   Temperature
41  °F
5°C
36  °F
Dewpoint
81  %
 Humidity
   Wind Speed
14  mph
12  kts
23  km/h
6.3  m/s
   Wind Direction
 300°
West North
West
   Airport Data
KBLV
Location Scott AFB / Midamerica 25 mi (40.23 km)
Metar :KBLV 100056Z AUTO 30012G22KT 10SM OVC016 05/02 A2984 RMK AO2 RAB2356E05 SLP110 P0000 T00520020 $
Mon 9th December 19:56 pm
   Raw Metar Info
Raw METAR is the most common format in the world for the transmission of observational weather data. It is highly standardized through the International Civil Aviation Organization (ICAO), which allows it to be understood throughout most of the world.
   API Info
Data Provided by
https://www.checkwx.com/weather/KBLV
   © Info
CSS/SVG/PHP scripts were developed by weather34.com for use in the weather34 template © 2015-2019

Guide Info provided by Metar-Wikipedia